Time;durP1;ratioP1;P1;durP2;ratioP2;P2;SDS_P1;SDS_P2;PMS_P1;PMS_P2;Temp;Humidity;BMP_temperature;BMP_pressure;BME280_temperature;BME280_humidity;BME280_pressure;Samples;Min_cycle;Max_cycle;Signal;HPM_P1;HPM_P2
2022/09/06 00:00:53;;;;;;;2.08;1.60;;;24.10;55.00;;;;;;5071719;28;20185;-69
2022/09/06 00:03:19;;;;;;;2.30;1.73;;;24.10;55.00;;;;;;5072545;28;20178;-69
2022/09/06 00:05:44;;;;;;;2.17;1.77;;;24.10;55.00;;;;;;5072385;28;20305;-68
2022/09/06 00:08:10;;;;;;;1.73;1.63;;;24.10;55.00;;;;;;5072093;28;20257;-69
2022/09/06 00:10:36;;;;;;;1.77;1.60;;;24.10;55.00;;;;;;5072690;28;20253;-69
2022/09/06 00:13:05;;;;;;;1.70;1.60;;;24.10;55.00;;;;;;5071619;28;20178;-69
2022/09/06 00:15:31;;;;;;;1.67;1.58;;;24.10;55.00;;;;;;5072515;28;20178;-69
2022/09/06 00:17:58;;;;;;;4.50;1.90;;;24.10;55.00;;;;;;5054339;28;20217;-70
2022/09/06 00:20:26;;;;;;;1.90;1.70;;;24.10;55.00;;;;;;5057564;28;20186;-70
2022/09/06 00:22:55;;;;;;;2.42;1.60;;;24.10;55.00;;;;;;5076363;28;20178;-70
2022/09/06 00:25:21;;;;;;;1.73;1.63;;;24.10;55.00;;;;;;5076190;28;20294;-69
2022/09/06 00:27:46;;;;;;;3.17;1.77;;;24.10;55.00;;;;;;5075336;28;20166;-70
2022/09/06 00:30:12;;;;;;;1.98;1.52;;;24.10;55.00;;;;;;5076208;28;20170;-68
2022/09/06 00:32:38;;;;;;;2.05;1.85;;;24.10;55.00;;;;;;5076083;28;20171;-69
2022/09/06 00:35:05;;;;;;;1.70;1.60;;;24.10;55.00;;;;;;5075435;28;20589;-69
2022/09/06 00:37:30;;;;;;;1.63;1.52;;;24.10;55.00;;;;;;5076115;28;20235;-69
2022/09/06 00:39:56;;;;;;;1.48;1.38;;;24.10;55.00;;;;;;5075874;28;20261;-70
2022/09/06 00:42:21;;;;;;;2.15;1.60;;;24.10;55.00;;;;;;5075347;28;20182;-70
2022/09/06 00:44:47;;;;;;;1.80;1.70;;;24.10;55.00;;;;;;5075773;28;20213;-70
2022/09/06 00:47:13;;;;;;;2.47;1.52;;;24.00;55.00;;;;;;5057959;28;20167;-68
2022/09/06 00:49:44;;;;;;;2.05;1.55;;;24.00;55.00;;;;;;5075253;28;20181;-69
2022/09/06 00:52:12;;;;;;;1.52;1.42;;;24.00;55.00;;;;;;5075838;28;20631;-68
2022/09/06 00:54:37;;;;;;;1.75;1.65;;;24.10;55.00;;;;;;5058104;28;20182;-69
2022/09/06 00:57:03;;;;;;;1.83;1.73;;;24.00;55.00;;;;;;5057087;28;20174;-69
2022/09/06 00:59:30;;;;;;;1.88;1.70;;;24.00;55.00;;;;;;5057704;28;20199;-68
2022/09/06 01:01:55;;;;;;;1.42;1.33;;;24.00;55.00;;;;;;5075332;28;20224;-69
2022/09/06 01:04:21;;;;;;;1.58;1.48;;;24.00;55.00;;;;;;5075063;28;20214;-69
2022/09/06 01:07:23;;;;;;;1.60;1.50;;;24.00;55.00;;;;;;5057647;28;20575;-70
2022/09/06 01:10:00;;;;;;;1.50;1.40;;;24.00;55.00;;;;;;5059572;28;20209;-69
2022/09/06 01:12:36;;;;;;;1.80;1.70;;;24.00;55.00;;;;;;5075567;28;20197;-69
2022/09/06 01:15:30;;;;;;;2.22;1.50;;;24.00;55.00;;;;;;5057568;28;20184;-69
2022/09/06 01:18:19;;;;;;;1.70;1.60;;;24.00;55.00;;;;;;5074603;28;20174;-70
2022/09/06 01:21:06;;;;;;;1.60;1.45;;;24.00;55.00;;;;;;5057219;28;20183;-71
2022/09/06 01:23:53;;;;;;;1.60;1.50;;;24.00;55.00;;;;;;5056752;28;20178;-70
2022/09/06 01:26:47;;;;;;;1.50;1.40;;;24.00;55.10;;;;;;5075161;28;20229;-68
2022/09/06 01:29:18;;;;;;;1.38;1.23;;;24.00;55.10;;;;;;5057472;28;20170;-68
2022/09/06 01:31:46;;;;;;;2.47;1.45;;;24.00;55.10;;;;;;5056419;28;20170;-68
2022/09/06 01:34:21;;;;;;;1.80;1.35;;;24.00;55.10;;;;;;5057399;28;20344;-69
2022/09/06 01:37:01;;;;;;;2.10;1.48;;;24.00;55.10;;;;;;5057062;28;20205;-70
2022/09/06 01:39:31;;;;;;;2.05;1.60;;;24.00;55.10;;;;;;5056204;28;20178;-70
2022/09/06 01:41:57;;;;;;;1.77;1.58;;;24.00;55.20;;;;;;5057599;28;20170;-70
2022/09/06 01:44:23;;;;;;;2.03;1.70;;;24.00;55.20;;;;;;5074154;28;20285;-70
2022/09/06 01:47:20;;;;;;;1.60;1.50;;;24.00;55.10;;;;;;5057067;28;20177;-69
2022/09/06 01:49:57;;;;;;;1.77;1.65;;;24.00;55.20;;;;;;5074433;28;20232;-69
2022/09/06 01:52:41;;;;;;;1.48;1.38;;;24.00;55.30;;;;;;5074101;28;20177;-69
2022/09/06 01:55:25;;;;;;;2.20;1.60;;;24.00;55.20;;;;;;5059074;28;20175;-68
2022/09/06 01:58:18;;;;;;;1.70;1.60;;;24.00;55.30;;;;;;5056614;28;20175;-69
2022/09/06 02:00:54;;;;;;;2.00;1.77;;;24.00;55.30;;;;;;5073718;28;20194;-69
2022/09/06 02:03:39;;;;;;;1.67;1.58;;;24.00;55.20;;;;;;5057906;28;20203;-68
2022/09/06 02:06:06;;;;;;;1.65;1.55;;;24.00;55.20;;;;;;5055837;28;20474;-69
2022/09/06 02:08:49;;;;;;;1.75;1.30;;;24.00;55.30;;;;;;5056426;28;20177;-69
2022/09/06 02:11:15;;;;;;;1.77;1.67;;;24.00;55.30;;;;;;5056797;28;20182;-69
2022/09/06 02:13:54;;;;;;;1.55;1.45;;;24.00;55.30;;;;;;5055800;28;20785;-70
2022/09/06 02:16:21;;;;;;;1.92;1.83;;;24.00;55.30;;;;;;5056494;28;20178;-69
2022/09/06 02:18:53;;;;;;;1.75;1.65;;;24.00;55.30;;;;;;5056195;28;20194;-71
2022/09/06 02:21:21;;;;;;;1.55;1.17;;;24.00;55.30;;;;;;5056096;28;20174;-70
2022/09/06 02:23:47;;;;;;;1.73;1.63;;;24.00;55.40;;;;;;5055829;28;20600;-70
2022/09/06 02:26:21;;;;;;;1.55;1.45;;;24.00;55.30;;;;;;5056115;28;20682;-69
2022/09/06 02:28:46;;;;;;;1.52;1.42;;;23.90;55.30;;;;;;5055226;28;20174;-69
2022/09/06 02:31:15;;;;;;;1.60;1.50;;;24.00;55.40;;;;;;5056217;28;20235;-68
2022/09/06 02:33:42;;;;;;;1.58;1.48;;;24.00;55.40;;;;;;5055138;28;20170;-69
2022/09/06 02:36:08;;;;;;;1.52;1.42;;;23.90;55.30;;;;;;5056065;28;20170;-70
2022/09/06 02:38:35;;;;;;;2.08;1.70;;;24.00;55.40;;;;;;5073800;28;20573;-69
2022/09/06 02:41:00;;;;;;;1.70;1.60;;;23.90;55.30;;;;;;5054527;28;20247;-70
2022/09/06 02:43:26;;;;;;;1.67;1.58;;;23.90;55.30;;;;;;5055776;28;20207;-69
2022/09/06 02:45:51;;;;;;;1.50;1.40;;;24.00;55.40;;;;;;5073345;28;20343;-69
2022/09/06 02:48:17;;;;;;;1.60;1.50;;;23.90;55.30;;;;;;5072931;28;20170;-68
2022/09/06 02:50:42;;;;;;;1.60;1.50;;;23.90;55.30;;;;;;5073534;28;20261;-69
2022/09/06 02:53:10;;;;;;;2.08;1.42;;;23.90;55.40;;;;;;5073240;28;20175;-68
2022/09/06 02:55:36;;;;;;;1.88;1.50;;;23.90;55.40;;;;;;5072805;28;20208;-68
2022/09/06 02:58:03;;;;;;;2.03;1.42;;;23.90;55.40;;;;;;5073334;28;20231;-69
2022/09/06 03:00:29;;;;;;;1.80;1.70;;;24.00;55.50;;;;;;5073295;28;20193;-68
2022/09/06 03:02:55;;;;;;;1.60;1.50;;;23.90;55.30;;;;;;5072365;28;20167;-70
2022/09/06 03:05:24;;;;;;;1.30;1.20;;;23.90;55.40;;;;;;5073465;28;20210;-69
2022/09/06 03:07:50;;;;;;;1.35;1.25;;;23.90;55.40;;;;;;5073348;28;20202;-69
2022/09/06 03:10:16;;;;;;;1.58;1.48;;;23.90;55.40;;;;;;5072690;28;20205;-69
2022/09/06 03:12:45;;;;;;;1.52;1.42;;;23.90;55.40;;;;;;5073252;28;20205;-69
2022/09/06 03:15:11;;;;;;;1.70;1.60;;;23.90;55.40;;;;;;5055268;28;20175;-70
2022/09/06 03:17:37;;;;;;;1.60;1.50;;;23.90;56.10;;;;;;5072515;28;20232;-70
2022/09/06 03:20:03;;;;;;;2.13;1.55;;;23.90;55.40;;;;;;5073111;28;20182;-71
2022/09/06 03:22:28;;;;;;;1.70;1.60;;;23.90;55.40;;;;;;5073150;28;20263;-70
2022/09/06 03:24:54;;;;;;;1.52;1.42;;;23.90;55.40;;;;;;5072016;28;20329;-69
2022/09/06 03:27:19;;;;;;;1.60;1.38;;;23.90;55.40;;;;;;5072948;28;20171;-69
2022/09/06 03:29:45;;;;;;;1.30;1.17;;;23.90;55.50;;;;;;5072465;28;20629;-70
2022/09/06 03:32:10;;;;;;;1.55;1.45;;;23.90;56.10;;;;;;5072455;28;20228;-68
2022/09/06 03:34:36;;;;;;;1.45;1.35;;;23.90;55.60;;;;;;5072977;28;20232;-70
2022/09/06 03:37:01;;;;;;;1.50;1.40;;;23.90;55.60;;;;;;5072075;28;20220;-70
2022/09/06 03:39:27;;;;;;;1.42;1.33;;;23.90;55.50;;;;;;5072761;28;20507;-69
2022/09/06 03:41:52;;;;;;;1.42;1.33;;;23.90;55.50;;;;;;5072707;28;20648;-69
2022/09/06 03:44:18;;;;;;;1.65;1.55;;;23.90;55.50;;;;;;5072071;28;20198;-68
2022/09/06 03:46:44;;;;;;;1.42;1.33;;;23.90;55.60;;;;;;5072481;28;20633;-68
2022/09/06 03:49:10;;;;;;;1.60;1.27;;;23.90;55.60;;;;;;5072939;28;20181;-68
2022/09/06 03:51:35;;;;;;;1.30;1.20;;;23.90;55.60;;;;;;5072148;28;20174;-67
2022/09/06 03:54:01;;;;;;;2.35;1.60;;;23.90;55.60;;;;;;5071654;28;20174;-69
2022/09/06 03:56:26;;;;;;;1.33;1.23;;;23.90;55.70;;;;;;5072622;28;20534;-69
2022/09/06 03:58:52;;;;;;;1.50;1.40;;;23.90;55.70;;;;;;5071936;28;20170;-69
2022/09/06 04:01:18;;;;;;;1.65;1.55;;;23.90;55.70;;;;;;5072882;28;20170;-69
2022/09/06 04:03:43;;;;;;;1.20;1.20;;;23.90;55.70;;;;;;5072582;28;20301;-69
2022/09/06 04:06:09;;;;;;;1.48;1.38;;;23.90;55.70;;;;;;5072024;28;20217;-69
2022/09/06 04:08:34;;;;;;;1.20;1.10;;;23.90;55.70;;;;;;5072598;28;20185;-69
2022/09/06 04:11:00;;;;;;;1.48;1.38;;;23.90;55.70;;;;;;5054591;28;20248;-69
2022/09/06 04:13:26;;;;;;;1.40;1.30;;;23.80;55.70;;;;;;5071765;28;20535;-69
2022/09/06 04:15:52;;;;;;;1.42;1.33;;;23.90;55.80;;;;;;5072215;28;20174;-71
2022/09/06 04:18:18;;;;;;;1.50;1.40;;;23.90;55.70;;;;;;5072682;28;20189;-70
2022/09/06 04:20:44;;;;;;;1.20;1.10;;;23.80;55.70;;;;;;5071784;28;20659;-71
2022/09/06 04:23:10;;;;;;;1.33;1.23;;;23.90;55.70;;;;;;5072561;28;20181;-70
2022/09/06 04:25:35;;;;;;;2.50;1.45;;;23.90;55.70;;;;;;5072046;28;20222;-69
2022/09/06 04:28:01;;;;;;;1.38;1.27;;;23.90;55.70;;;;;;5071207;28;20174;-69
2022/09/06 04:30:27;;;;;;;1.35;1.25;;;23.80;55.70;;;;;;5072465;28;20667;-68
2022/09/06 04:32:52;;;;;;;1.30;1.20;;;23.80;55.70;;;;;;5072290;28;20216;-69
2022/09/06 04:35:18;;;;;;;2.80;1.50;;;23.90;55.70;;;;;;5071628;28;20179;-71
2022/09/06 04:37:43;;;;;;;1.65;1.55;;;23.90;55.70;;;;;;5072224;28;20629;-70
2022/09/06 04:40:09;;;;;;;1.30;1.20;;;23.90;55.70;;;;;;5072173;28;20236;-70
2022/09/06 04:42:35;;;;;;;1.50;1.40;;;23.80;55.70;;;;;;5071757;28;20224;-70
2022/09/06 04:45:00;;;;;;;1.35;1.30;;;23.80;55.80;;;;;;5071885;28;20734;-69
2022/09/06 04:47:26;;;;;;;1.40;1.30;;;23.90;55.80;;;;;;5071347;28;20637;-68
2022/09/06 04:49:52;;;;;;;1.52;1.13;;;23.80;55.80;;;;;;5054366;28;20182;-70
2022/09/06 04:52:17;;;;;;;1.45;1.35;;;23.80;55.80;;;;;;5072293;28;20472;-68
2022/09/06 04:54:43;;;;;;;1.60;1.50;;;23.80;55.80;;;;;;5071426;28;20537;-69
2022/09/06 04:57:09;;;;;;;1.38;1.27;;;23.80;55.90;;;;;;5072077;28;20521;-69
2022/09/06 04:59:34;;;;;;;1.52;1.42;;;23.80;55.80;;;;;;5072003;28;20265;-69
2022/09/06 05:02:00;;;;;;;1.40;1.30;;;23.80;55.80;;;;;;5071383;28;20171;-70
2022/09/06 05:04:25;;;;;;;1.20;1.10;;;23.80;55.80;;;;;;5072393;28;20275;-69
2022/09/06 05:07:05;;;;;;;1.40;1.30;;;23.80;55.80;;;;;;5075413;28;20290;-70
2022/09/06 05:09:31;;;;;;;1.50;1.40;;;23.80;55.80;;;;;;5074782;28;20702;-69
2022/09/06 05:11:56;;;;;;;2.20;1.60;;;23.80;55.80;;;;;;5075103;28;20193;-69
2022/09/06 05:14:22;;;;;;;1.58;1.20;;;23.80;55.80;;;;;;5075566;28;20174;-69
2022/09/06 05:16:49;;;;;;;1.10;1.10;;;23.80;55.80;;;;;;5074700;28;20183;-71
2022/09/06 05:19:15;;;;;;;1.33;1.23;;;23.80;55.80;;;;;;5075430;28;20182;-71
2022/09/06 05:21:40;;;;;;;1.60;1.40;;;23.80;55.80;;;;;;5075297;28;20224;-71
2022/09/06 05:24:06;;;;;;;1.40;1.30;;;23.80;55.80;;;;;;5074198;28;20206;-70
2022/09/06 05:26:31;;;;;;;2.00;1.88;;;23.80;55.80;;;;;;5075118;28;20175;-70
2022/09/06 05:28:57;;;;;;;1.20;1.20;;;23.80;55.80;;;;;;5075203;28;20224;-68
2022/09/06 05:31:28;;;;;;;1.55;1.45;;;23.80;55.80;;;;;;5074296;28;20598;-69
2022/09/06 05:33:54;;;;;;;1.38;1.27;;;23.80;55.80;;;;;;5075028;28;20183;-70
2022/09/06 05:36:22;;;;;;;1.10;1.10;;;23.80;55.80;;;;;;5075129;28;20174;-70
2022/09/06 05:38:48;;;;;;;1.40;1.30;;;23.80;55.80;;;;;;5074036;28;20185;-72
2022/09/06 05:41:14;;;;;;;1.50;1.38;;;23.80;55.80;;;;;;5075162;28;20183;-70
2022/09/06 05:43:39;;;;;;;1.35;1.25;;;23.80;55.80;;;;;;5074078;28;20329;-70
2022/09/06 05:46:05;;;;;;;1.60;1.50;;;23.80;55.80;;;;;;5074917;28;20305;-69
2022/09/06 05:48:30;;;;;;;1.58;1.10;;;23.80;55.80;;;;;;5074845;28;20179;-69
2022/09/06 05:51:11;;;;;;;1.60;1.50;;;23.80;55.80;;;;;;5073936;28;20220;-70
2022/09/06 05:53:39;;;;;;;1.08;1.08;;;23.80;55.80;;;;;;5074591;28;20521;-69
2022/09/06 05:56:04;;;;;;;1.40;1.30;;;23.90;55.90;;;;;;5074632;28;20217;-69
2022/09/06 05:58:30;;;;;;;1.52;1.42;;;23.80;55.80;;;;;;5074059;28;20198;-70
2022/09/06 06:01:16;;;;;;;1.33;1.23;;;23.80;55.80;;;;;;5074431;28;20181;-70
2022/09/06 06:03:42;;;;;;;1.40;1.38;;;23.90;55.80;;;;;;5074523;28;20175;-69
2022/09/06 06:06:08;;;;;;;1.48;1.38;;;23.80;55.80;;;;;;5073531;28;20297;-70
2022/09/06 06:08:34;;;;;;;1.40;1.30;;;23.80;55.80;;;;;;5074526;28;20216;-70
2022/09/06 06:11:00;;;;;;;1.40;1.30;;;23.90;55.90;;;;;;5074330;28;20178;-69
2022/09/06 06:13:30;;;;;;;1.35;1.27;;;23.90;55.90;;;;;;5073608;28;20644;-69
2022/09/06 06:15:56;;;;;;;1.60;1.50;;;23.90;55.90;;;;;;5073432;28;20186;-70
2022/09/06 06:18:21;;;;;;;1.38;1.27;;;23.80;55.80;;;;;;5073728;28;20175;-70
2022/09/06 06:20:47;;;;;;;1.40;1.30;;;23.80;55.80;;;;;;5073253;28;20693;-71
2022/09/06 06:23:14;;;;;;;1.67;1.58;;;23.80;55.90;;;;;;5074311;28;20224;-70
2022/09/06 06:25:40;;;;;;;1.60;1.50;;;23.90;55.90;;;;;;5073309;28;20592;-69
2022/09/06 06:28:05;;;;;;;1.05;1.05;;;23.90;55.90;;;;;;5073755;28;20170;-69
2022/09/06 06:30:31;;;;;;;1.52;1.42;;;23.90;55.90;;;;;;5073909;28;20171;-69
2022/09/06 06:32:57;;;;;;;1.30;1.20;;;23.90;55.80;;;;;;5073071;28;20178;-69
2022/09/06 06:35:23;;;;;;;1.40;1.40;;;23.90;55.80;;;;;;5073782;28;20174;-69
2022/09/06 06:37:49;;;;;;;1.38;1.35;;;23.90;55.80;;;;;;5073556;28;20529;-70
2022/09/06 06:40:14;;;;;;;1.60;1.50;;;23.90;55.70;;;;;;5073277;28;20178;-70
2022/09/06 06:42:40;;;;;;;1.38;1.27;;;23.90;55.70;;;;;;5073839;28;20558;-70
2022/09/06 06:45:06;;;;;;;1.40;1.30;;;24.00;55.80;;;;;;5073355;28;20660;-68
2022/09/06 06:47:31;;;;;;;1.60;1.50;;;23.90;55.70;;;;;;5072775;28;20186;-67
2022/09/06 06:49:57;;;;;;;1.40;1.30;;;24.00;56.10;;;;;;5073221;28;20175;-68
2022/09/06 06:52:23;;;;;;;1.42;1.30;;;24.10;55.90;;;;;;5073415;28;20178;-67
2022/09/06 06:54:48;;;;;;;1.48;1.38;;;24.00;55.80;;;;;;5072579;28;20656;-68
2022/09/06 06:57:14;;;;;;;2.55;1.58;;;24.10;56.00;;;;;;5073416;28;20555;-67
2022/09/06 06:59:39;;;;;;;1.40;1.30;;;24.00;55.90;;;;;;5073216;28;20189;-67
2022/09/06 07:02:05;;;;;;;1.50;1.40;;;24.10;56.00;;;;;;5072416;28;20696;-67
2022/09/06 07:04:31;;;;;;;1.88;1.58;;;24.10;56.00;;;;;;5073053;28;20216;-67
2022/09/06 07:06:57;;;;;;;2.83;1.60;;;24.10;56.00;;;;;;5073278;28;20167;-68
2022/09/06 07:09:22;;;;;;;4.10;1.52;;;24.20;56.10;;;;;;5072652;28;20174;-67
2022/09/06 07:11:48;;;;;;;1.52;1.40;;;24.20;56.20;;;;;;5072945;28;20629;-67
2022/09/06 07:14:14;;;;;;;2.05;1.67;;;24.20;56.20;;;;;;5073228;28;20174;-67
2022/09/06 07:16:40;;;;;;;1.58;1.48;;;24.20;56.20;;;;;;5054350;28;20170;-69
2022/09/06 07:19:06;;;;;;;1.92;1.60;;;24.30;56.10;;;;;;5073281;28;20224;-69
2022/09/06 07:21:31;;;;;;;1.80;1.50;;;24.30;56.20;;;;;;5073173;28;20506;-69
2022/09/06 07:23:57;;;;;;;2.05;1.85;;;24.30;56.20;;;;;;5072023;28;20499;-69
2022/09/06 07:26:24;;;;;;;2.58;1.50;;;24.30;56.20;;;;;;5072658;28;20226;-68
2022/09/06 07:28:54;;;;;;;2.85;1.92;;;24.30;56.20;;;;;;5072538;28;20181;-68
2022/09/06 07:31:19;;;;;;;1.85;1.63;;;24.30;56.20;;;;;;5072113;28;20178;-68
2022/09/06 07:33:45;;;;;;;2.05;1.85;;;24.30;56.10;;;;;;5072759;28;20625;-68
2022/09/06 07:36:10;;;;;;;2.30;1.80;;;24.30;56.10;;;;;;5072387;28;20178;-68
2022/09/06 07:38:36;;;;;;;1.70;1.60;;;24.30;56.10;;;;;;5072903;28;20163;-69
2022/09/06 07:41:06;;;;;;;2.33;1.77;;;24.30;56.10;;;;;;5072692;28;20182;-69
2022/09/06 07:43:32;;;;;;;2.15;1.95;;;24.40;56.10;;;;;;5072074;28;20257;-68
2022/09/06 07:46:08;;;;;;;2.08;1.88;;;24.30;56.10;;;;;;5054935;28;20344;-68
2022/09/06 07:48:35;;;;;;;1.65;1.55;;;24.30;56.10;;;;;;5072961;28;20170;-68
2022/09/06 07:51:17;;;;;;;1.70;1.60;;;24.40;56.10;;;;;;5072009;28;20178;-68
2022/09/06 07:53:46;;;;;;;1.50;1.40;;;24.40;56.10;;;;;;5072747;28;20178;-68
2022/09/06 07:56:12;;;;;;;2.20;1.63;;;24.50;56.10;;;;;;5072750;28;20185;-68
2022/09/06 07:58:39;;;;;;;1.65;1.55;;;24.40;56.10;;;;;;5071881;28;20175;-68
2022/09/06 08:01:25;;;;;;;2.03;1.60;;;24.40;56.00;;;;;;5072679;28;20170;-68
2022/09/06 08:03:51;;;;;;;2.50;1.70;;;24.50;56.00;;;;;;5072500;28;20178;-69
2022/09/06 08:06:16;;;;;;;1.92;1.50;;;24.50;56.00;;;;;;5072004;28;20174;-69
2022/09/06 08:08:42;;;;;;;2.78;1.77;;;24.50;56.00;;;;;;5072490;28;20162;-69
2022/09/06 08:11:07;;;;;;;5.63;1.75;;;24.50;56.00;;;;;;5072199;28;20251;-69
2022/09/06 08:13:34;;;;;;;1.90;1.80;;;24.50;55.90;;;;;;5071737;28;20185;-68
2022/09/06 08:16:05;;;;;;;2.45;1.52;;;24.50;55.90;;;;;;5072523;28;20178;-69
2022/09/06 08:18:30;;;;;;;3.25;1.48;;;24.60;56.50;;;;;;5071812;28;20583;-70
2022/09/06 08:20:56;;;;;;;3.05;1.80;;;24.60;55.90;;;;;;5072281;28;20167;-70
2022/09/06 08:23:21;;;;;;;1.50;1.40;;;24.60;55.90;;;;;;5054381;28;20266;-70
2022/09/06 08:25:57;;;;;;;1.60;1.50;;;24.60;55.80;;;;;;5071316;28;20229;-69
2022/09/06 08:28:22;;;;;;;2.00;1.80;;;24.60;55.80;;;;;;5072504;28;20178;-68
2022/09/06 08:30:48;;;;;;;1.60;1.50;;;24.70;55.80;;;;;;5072443;28;20205;-68
2022/09/06 08:33:14;;;;;;;1.60;1.50;;;24.70;55.80;;;;;;5071659;28;20262;-68
2022/09/06 08:35:40;;;;;;;1.70;1.60;;;24.70;55.70;;;;;;5072399;28;20247;-68
2022/09/06 08:38:05;;;;;;;1.80;1.70;;;24.70;55.70;;;;;;5072248;28;20239;-69
2022/09/06 08:40:31;;;;;;;2.53;1.50;;;24.80;55.70;;;;;;5073561;28;20181;-70
2022/09/06 08:42:56;;;;;;;2.20;1.70;;;24.80;55.70;;;;;;5075971;28;20235;-69
2022/09/06 08:45:22;;;;;;;1.70;1.60;;;24.80;55.70;;;;;;5058150;28;20213;-68
2022/09/06 08:47:49;;;;;;;2.33;1.58;;;24.80;55.70;;;;;;5075268;28;20182;-68
2022/09/06 08:50:15;;;;;;;1.60;1.50;;;24.80;55.70;;;;;;5058458;28;20186;-68
2022/09/06 08:53:00;;;;;;;1.88;1.70;;;24.80;55.60;;;;;;5075649;28;20196;-68
2022/09/06 08:55:32;;;;;;;1.65;1.38;;;24.90;55.70;;;;;;5057415;28;20271;-68
2022/09/06 08:58:16;;;;;;;2.17;1.58;;;24.90;55.60;;;;;;5058445;28;20178;-68
2022/09/06 09:00:50;;;;;;;1.83;1.70;;;24.90;55.60;;;;;;5075038;28;20202;-69
2022/09/06 09:03:20;;;;;;;1.60;1.45;;;25.00;55.60;;;;;;5057773;28;20250;-69
2022/09/06 09:05:47;;;;;;;3.70;1.70;;;25.00;55.60;;;;;;5058022;28;20262;-69
2022/09/06 09:08:18;;;;;;;1.80;1.60;;;25.00;55.60;;;;;;5057067;28;20625;-69
2022/09/06 09:10:49;;;;;;;2.28;1.50;;;25.00;55.50;;;;;;5075372;28;20174;-69
2022/09/06 09:13:28;;;;;;;2.03;1.83;;;25.00;55.50;;;;;;5057786;28;20239;-69
2022/09/06 09:15:53;;;;;;;1.50;1.40;;;25.00;55.50;;;;;;5074393;28;20636;-69
2022/09/06 09:18:25;;;;;;;1.50;1.40;;;25.00;55.50;;;;;;5075614;28;20199;-66
2022/09/06 09:20:50;;;;;;;2.13;1.60;;;25.10;55.50;;;;;;5057279;28;20253;-71
2022/09/06 09:23:16;;;;;;;1.95;1.70;;;25.10;55.50;;;;;;5056756;28;20324;-70
2022/09/06 09:25:42;;;;;;;5.22;2.08;;;25.10;55.50;;;;;;5074542;28;20225;-71
2022/09/06 09:28:18;;;;;;;2.65;1.80;;;25.10;55.40;;;;;;5056800;28;20171;-70
2022/09/06 09:30:49;;;;;;;2.13;1.85;;;25.20;55.40;;;;;;5073711;28;20260;-71
2022/09/06 09:33:25;;;;;;;2.47;2.25;;;25.20;55.40;;;;;;5074730;28;20182;-70
2022/09/06 09:35:51;;;;;;;2.00;1.90;;;25.20;55.30;;;;;;5074040;28;20227;-65
2022/09/06 09:38:23;;;;;;;1.73;1.60;;;25.20;55.30;;;;;;5057135;28;20174;-67
2022/09/06 09:40:52;;;;;;;4.22;2.13;;;25.30;55.30;;;;;;5056838;28;20185;-68
2022/09/06 09:43:25;;;;;;;7.00;1.90;;;25.30;55.40;;;;;;5074360;28;20257;-69
2022/09/06 09:46:09;;;;;;;3.55;2.30;;;25.30;55.30;;;;;;5057039;28;20214;-69
2022/09/06 09:48:35;;;;;;;5.00;1.98;;;25.30;55.30;;;;;;5074249;28;20178;-70
2022/09/06 09:51:22;;;;;;;2.22;1.88;;;25.40;55.30;;;;;;5073660;28;20621;-69
2022/09/06 09:53:49;;;;;;;3.30;1.83;;;25.40;55.30;;;;;;5074373;28;20232;-65
2022/09/06 09:56:15;;;;;;;4.63;1.92;;;25.40;55.30;;;;;;5074426;28;20244;-68
2022/09/06 09:58:40;;;;;;;5.03;2.00;;;25.40;55.30;;;;;;5073961;28;20381;-70
2022/09/06 10:01:17;;;;;;;10.20;2.03;;;25.40;55.20;;;;;;5056304;28;20170;-68
2022/09/06 10:03:43;;;;;;;3.53;2.25;;;25.40;55.20;;;;;;5056428;28;20185;-68
2022/09/06 10:06:10;;;;;;;5.47;2.38;;;25.50;55.30;;;;;;5056553;28;20210;-68
2022/09/06 10:08:38;;;;;;;4.38;2.00;;;25.50;55.20;;;;;;5056569;28;20190;-68
2022/09/06 10:11:03;;;;;;;4.53;2.50;;;25.50;55.20;;;;;;5055569;28;20205;-68
2022/09/06 10:13:29;;;;;;;2.33;2.10;;;25.60;55.10;;;;;;5074264;28;20221;-68
2022/09/06 10:15:57;;;;;;;3.10;2.03;;;25.60;55.10;;;;;;5074050;28;20265;-70
2022/09/06 10:18:29;;;;;;;2.55;1.70;;;25.60;55.00;;;;;;5073571;28;20166;-70
2022/09/06 10:21:05;;;;;;;2.50;1.80;;;25.60;55.00;;;;;;5074141;28;20203;-71
2022/09/06 10:23:49;;;;;;;2.97;2.15;;;25.60;54.90;;;;;;5056175;28;20261;-70
2022/09/06 10:26:21;;;;;;;3.03;1.90;;;25.70;54.90;;;;;;5073171;28;20234;-69
2022/09/06 10:28:46;;;;;;;2.30;1.83;;;25.70;54.90;;;;;;5056737;28;20158;-69
2022/09/06 10:31:52;;;;;;;3.60;1.73;;;25.70;54.90;;;;;;5074223;28;20240;-68
2022/09/06 10:34:29;;;;;;;3.38;2.05;;;25.70;54.90;;;;;;5075533;28;20177;-71
2022/09/06 10:37:11;;;;;;;4.65;2.33;;;25.70;54.90;;;;;;5073650;28;20293;-72
2022/09/06 10:39:56;;;;;;;5.38;2.10;;;25.70;54.90;;;;;;5056207;28;20178;-70
2022/09/06 10:42:40;;;;;;;3.05;2.05;;;25.70;54.80;;;;;;5073846;28;20197;-71
2022/09/06 10:45:16;;;;;;;4.45;2.00;;;25.70;54.90;;;;;;5073478;28;20217;-70
2022/09/06 10:47:55;;;;;;;2.20;2.00;;;25.70;55.00;;;;;;5072820;28;20746;-70
2022/09/06 10:50:37;;;;;;;4.03;2.05;;;25.60;55.00;;;;;;5073726;28;20182;-71
2022/09/06 10:53:12;;;;;;;2.17;1.98;;;25.60;55.00;;;;;;5056671;28;20174;-70
2022/09/06 10:55:39;;;;;;;3.08;2.03;;;25.60;55.10;;;;;;5055659;28;20190;-70
2022/09/06 10:58:04;;;;;;;3.13;1.80;;;25.60;55.20;;;;;;5055183;28;20182;-71
2022/09/06 11:00:36;;;;;;;1.90;1.70;;;25.60;55.20;;;;;;5054968;28;20221;-71
2022/09/06 11:03:09;;;;;;;4.32;2.10;;;25.50;55.20;;;;;;5072591;28;20175;-71
2022/09/06 11:05:57;;;;;;;2.92;1.92;;;25.60;55.30;;;;;;5059942;28;20208;-71
2022/09/06 11:09:17;;;;;;;4.18;2.15;;;25.50;55.90;;;;;;5070607;28;20174;-71
2022/09/06 11:12:04;;;;;;;4.15;1.77;;;25.50;55.30;;;;;;5020632;28;20233;-70
2022/09/06 11:14:30;;;;;;;2.35;2.15;;;25.50;55.30;;;;;;5017063;28;20172;-71
2022/09/06 11:17:06;;;;;;;2.08;1.88;;;25.50;55.20;;;;;;5076071;28;20212;-71
2022/09/06 11:19:38;;;;;;;3.55;2.25;;;25.50;55.20;;;;;;5061884;28;20677;-72
2022/09/06 11:22:27;;;;;;;3.83;2.20;;;25.50;55.10;;;;;;5054302;28;20190;-72
2022/09/06 11:25:05;;;;;;;2.80;1.90;;;25.50;55.10;;;;;;5025721;28;20310;-72
2022/09/06 11:27:35;;;;;;;2.45;1.95;;;25.50;55.00;;;;;;5055276;28;20174;-72
2022/09/06 11:30:00;;;;;;;4.40;1.98;;;25.50;55.10;;;;;;5054412;28;20175;-72
2022/09/06 11:32:49;;;;;;;5.18;2.05;;;25.50;55.00;;;;;;5055184;28;20170;-71
2022/09/06 11:35:33;;;;;;;3.15;1.88;;;25.50;55.00;;;;;;5072202;28;20228;-72
2022/09/06 11:38:16;;;;;;;4.40;2.30;;;25.60;55.00;;;;;;5072842;28;20197;-72
2022/09/06 11:40:46;;;;;;;2.10;1.80;;;25.50;55.00;;;;;;5054611;28;20182;-73
2022/09/06 11:43:17;;;;;;;4.00;1.77;;;25.60;55.00;;;;;;5053361;28;20645;-72
2022/09/06 11:45:51;;;;;;;2.40;1.88;;;25.60;54.90;;;;;;5054198;28;20292;-70
2022/09/06 11:48:23;;;;;;;2.85;1.80;;;25.60;54.90;;;;;;5054706;28;20174;-72
2022/09/06 11:51:01;;;;;;;3.47;1.95;;;25.60;54.80;;;;;;5071909;28;20181;-72
2022/09/06 11:53:27;;;;;;;1.80;1.70;;;25.70;54.80;;;;;;5072695;28;20178;-71
2022/09/06 11:55:59;;;;;;;2.65;1.77;;;25.70;55.40;;;;;;5054624;28;20189;-71
2022/09/06 11:58:42;;;;;;;2.08;1.88;;;25.70;54.70;;;;;;5072069;28;20167;-72
2022/09/06 12:01:28;;;;;;;3.83;1.80;;;25.70;54.60;;;;;;5056653;28;20633;-72
2022/09/06 12:03:57;;;;;;;2.80;1.90;;;25.70;54.60;;;;;;5060984;28;20210;-72
2022/09/06 12:06:34;;;;;;;3.45;1.98;;;25.70;54.60;;;;;;5072263;28;20272;-72
2022/09/06 12:08:59;;;;;;;2.47;1.55;;;25.70;54.50;;;;;;5054711;28;20263;-72
2022/09/06 12:11:42;;;;;;;2.97;1.85;;;25.80;54.50;;;;;;5054251;28;20265;-72
2022/09/06 12:14:30;;;;;;;1.58;1.45;;;25.80;54.40;;;;;;5054804;28;20206;-72
2022/09/06 12:17:06;;;;;;;2.22;1.35;;;25.80;54.40;;;;;;5058577;28;20543;-73
2022/09/06 12:19:51;;;;;;;2.33;1.60;;;25.90;54.40;;;;;;5076097;28;20174;-73
2022/09/06 12:22:45;;;;;;;1.70;1.58;;;25.90;54.40;;;;;;5058701;28;20579;-73
2022/09/06 12:25:33;;;;;;;1.63;1.52;;;25.90;54.30;;;;;;5075464;28;20680;-73
2022/09/06 12:27:59;;;;;;;1.85;1.50;;;26.00;54.30;;;;;;5076320;28;20186;-72
2022/09/06 12:30:37;;;;;;;2.90;1.50;;;25.90;54.20;;;;;;5076414;28;20175;-72
2022/09/06 12:33:31;;;;;;;3.85;1.60;;;26.00;54.20;;;;;;5075156;28;20204;-64
2022/09/06 12:36:14;;;;;;;4.05;2.20;;;26.00;54.40;;;;;;5075863;28;20209;-70
2022/09/06 12:39:02;;;;;;;3.42;1.60;;;26.10;54.20;;;;;;5057632;28;20530;-71
2022/09/06 12:41:30;;;;;;;2.88;2.33;;;26.10;54.20;;;;;;5060949;28;20198;-71
2022/09/06 12:43:57;;;;;;;3.53;1.77;;;26.10;54.10;;;;;;5057496;28;20182;-71
2022/09/06 12:46:24;;;;;;;4.07;1.90;;;26.10;54.20;;;;;;5065910;28;20209;-71
2022/09/06 12:49:05;;;;;;;3.22;1.40;;;26.10;54.10;;;;;;5068159;28;20174;-72
2022/09/06 12:51:30;;;;;;;2.67;1.70;;;26.10;54.00;;;;;;5096086;28;20270;-71
2022/09/06 12:53:58;;;;;;;3.83;1.73;;;26.20;54.10;;;;;;5078325;28;20217;-71
2022/09/06 12:56:25;;;;;;;3.60;1.58;;;26.20;54.00;;;;;;5074843;28;20640;-71
2022/09/06 12:58:51;;;;;;;3.97;1.92;;;26.20;54.00;;;;;;5075494;28;20178;-72
2022/09/06 13:01:28;;;;;;;3.47;1.73;;;26.20;54.00;;;;;;5082174;28;20164;-58
2022/09/06 13:04:03;;;;;;;5.22;1.75;;;26.20;54.10;;;;;;5077711;28;20632;-58